sensor_id;sensor_type;location;lat;lon;timestamp;P1;durP1;ratioP1;P2;durP2;ratioP2
53245;SDS011;39569;51.090;-1.786;2023-07-13T00:00:46;3.45;;;3.17;;
53245;SDS011;39569;51.090;-1.786;2023-07-13T00:03:13;10.80;;;4.15;;
53245;SDS011;39569;51.090;-1.786;2023-07-13T00:05:41;7.15;;;3.75;;
53245;SDS011;39569;51.090;-1.786;2023-07-13T00:08:08;4.90;;;4.40;;
53245;SDS011;39569;51.090;-1.786;2023-07-13T00:10:38;5.00;;;3.67;;
53245;SDS011;39569;51.090;-1.786;2023-07-13T00:13:06;6.35;;;4.53;;
53245;SDS011;39569;51.090;-1.786;2023-07-13T00:15:33;9.48;;;5.00;;
53245;SDS011;39569;51.090;-1.786;2023-07-13T00:18:00;6.63;;;4.80;;
53245;SDS011;39569;51.090;-1.786;2023-07-13T00:20:27;11.73;;;5.22;;
53245;SDS011;39569;51.090;-1.786;2023-07-13T00:22:55;5.05;;;3.47;;
53245;SDS011;39569;51.090;-1.786;2023-07-13T00:25:22;3.35;;;3.10;;
53245;SDS011;39569;51.090;-1.786;2023-07-13T00:27:53;5.45;;;3.90;;
53245;SDS011;39569;51.090;-1.786;2023-07-13T00:30:21;9.27;;;5.25;;
53245;SDS011;39569;51.090;-1.786;2023-07-13T00:32:49;6.10;;;4.10;;
53245;SDS011;39569;51.090;-1.786;2023-07-13T00:35:16;6.32;;;4.43;;
53245;SDS011;39569;51.090;-1.786;2023-07-13T00:37:42;6.63;;;4.28;;
53245;SDS011;39569;51.090;-1.786;2023-07-13T00:40:11;7.28;;;4.13;;
53245;SDS011;39569;51.090;-1.786;2023-07-13T00:42:40;7.25;;;4.78;;
53245;SDS011;39569;51.090;-1.786;2023-07-13T00:46:15;8.65;;;4.47;;
53245;SDS011;39569;51.090;-1.786;2023-07-13T00:48:14;12.68;;;1.95;;
53245;SDS011;39569;51.090;-1.786;2023-07-13T00:50:45;6.13;;;3.63;;
53245;SDS011;39569;51.090;-1.786;2023-07-13T00:53:15;4.85;;;3.60;;
53245;SDS011;39569;51.090;-1.786;2023-07-13T00:55:43;6.07;;;3.55;;
53245;SDS011;39569;51.090;-1.786;2023-07-13T00:58:11;4.32;;;3.47;;
53245;SDS011;39569;51.090;-1.786;2023-07-13T01:00:38;4.72;;;3.33;;
53245;SDS011;39569;51.090;-1.786;2023-07-13T01:03:06;12.50;;;3.92;;
53245;SDS011;39569;51.090;-1.786;2023-07-13T01:05:34;7.38;;;3.63;;
53245;SDS011;39569;51.090;-1.786;2023-07-13T01:08:02;9.02;;;4.22;;
53245;SDS011;39569;51.090;-1.786;2023-07-13T01:10:30;3.60;;;3.10;;
53245;SDS011;39569;51.090;-1.786;2023-07-13T01:13:05;6.05;;;3.53;;
53245;SDS011;39569;51.090;-1.786;2023-07-13T01:15:36;6.05;;;3.72;;
53245;SDS011;39569;51.090;-1.786;2023-07-13T01:18:05;4.90;;;4.20;;
53245;SDS011;39569;51.090;-1.786;2023-07-13T01:20:33;3.97;;;3.28;;
53245;SDS011;39569;51.090;-1.786;2023-07-13T01:23:04;3.17;;;2.88;;
53245;SDS011;39569;51.090;-1.786;2023-07-13T01:25:32;6.32;;;3.85;;
53245;SDS011;39569;51.090;-1.786;2023-07-13T01:28:00;5.45;;;4.43;;
53245;SDS011;39569;51.090;-1.786;2023-07-13T01:30:27;6.72;;;3.90;;
53245;SDS011;39569;51.090;-1.786;2023-07-13T01:32:54;6.95;;;4.45;;
53245;SDS011;39569;51.090;-1.786;2023-07-13T01:35:21;10.77;;;3.28;;
53245;SDS011;39569;51.090;-1.786;2023-07-13T01:37:48;6.53;;;3.30;;
53245;SDS011;39569;51.090;-1.786;2023-07-13T01:40:16;4.15;;;3.75;;
53245;SDS011;39569;51.090;-1.786;2023-07-13T01:42:43;5.15;;;4.40;;
53245;SDS011;39569;51.090;-1.786;2023-07-13T01:45:10;4.75;;;3.65;;
53245;SDS011;39569;51.090;-1.786;2023-07-13T01:47:36;5.65;;;2.97;;
53245;SDS011;39569;51.090;-1.786;2023-07-13T01:50:03;3.72;;;3.40;;
53245;SDS011;39569;51.090;-1.786;2023-07-13T01:52:31;8.00;;;3.53;;
53245;SDS011;39569;51.090;-1.786;2023-07-13T01:54:59;6.07;;;4.20;;
53245;SDS011;39569;51.090;-1.786;2023-07-13T01:57:27;7.68;;;3.95;;
53245;SDS011;39569;51.090;-1.786;2023-07-13T01:59:54;3.00;;;2.72;;
53245;SDS011;39569;51.090;-1.786;2023-07-13T02:02:21;4.85;;;3.42;;
53245;SDS011;39569;51.090;-1.786;2023-07-13T02:04:47;5.90;;;4.18;;
53245;SDS011;39569;51.090;-1.786;2023-07-13T02:07:14;9.15;;;3.78;;
53245;SDS011;39569;51.090;-1.786;2023-07-13T02:09:41;3.40;;;3.17;;
53245;SDS011;39569;51.090;-1.786;2023-07-13T02:12:08;3.03;;;2.83;;
53245;SDS011;39569;51.090;-1.786;2023-07-13T02:14:36;3.40;;;3.10;;
53245;SDS011;39569;51.090;-1.786;2023-07-13T02:17:03;7.00;;;3.78;;
53245;SDS011;39569;51.090;-1.786;2023-07-13T02:19:30;4.85;;;3.70;;
53245;SDS011;39569;51.090;-1.786;2023-07-13T02:21:57;4.07;;;2.47;;
53245;SDS011;39569;51.090;-1.786;2023-07-13T02:24:24;7.18;;;3.63;;
53245;SDS011;39569;51.090;-1.786;2023-07-13T02:26:52;3.78;;;3.45;;
53245;SDS011;39569;51.090;-1.786;2023-07-13T02:29:18;2.97;;;2.75;;
53245;SDS011;39569;51.090;-1.786;2023-07-13T02:31:47;5.40;;;3.92;;
53245;SDS011;39569;51.090;-1.786;2023-07-13T02:34:13;3.28;;;2.88;;
53245;SDS011;39569;51.090;-1.786;2023-07-13T02:36:40;4.38;;;3.50;;
53245;SDS011;39569;51.090;-1.786;2023-07-13T02:39:07;5.03;;;3.30;;
53245;SDS011;39569;51.090;-1.786;2023-07-13T02:41:35;7.05;;;4.32;;
53245;SDS011;39569;51.090;-1.786;2023-07-13T02:44:02;4.18;;;3.15;;
53245;SDS011;39569;51.090;-1.786;2023-07-13T02:46:29;5.97;;;3.30;;
53245;SDS011;39569;51.090;-1.786;2023-07-13T02:48:57;5.25;;;3.63;;
53245;SDS011;39569;51.090;-1.786;2023-07-13T02:51:24;8.85;;;2.92;;
53245;SDS011;39569;51.090;-1.786;2023-07-13T02:53:51;3.63;;;3.33;;
53245;SDS011;39569;51.090;-1.786;2023-07-13T02:56:17;8.38;;;3.53;;
53245;SDS011;39569;51.090;-1.786;2023-07-13T02:58:45;6.50;;;3.75;;
53245;SDS011;39569;51.090;-1.786;2023-07-13T03:01:12;10.70;;;3.28;;
53245;SDS011;39569;51.090;-1.786;2023-07-13T03:03:44;3.10;;;2.88;;
53245;SDS011;39569;51.090;-1.786;2023-07-13T03:06:13;7.72;;;3.80;;
53245;SDS011;39569;51.090;-1.786;2023-07-13T03:08:41;4.65;;;3.45;;
53245;SDS011;39569;51.090;-1.786;2023-07-13T03:11:10;10.00;;;3.50;;
53245;SDS011;39569;51.090;-1.786;2023-07-13T03:13:39;2.83;;;2.63;;
53245;SDS011;39569;51.090;-1.786;2023-07-13T03:16:06;6.80;;;3.83;;
53245;SDS011;39569;51.090;-1.786;2023-07-13T03:18:35;7.40;;;3.17;;
53245;SDS011;39569;51.090;-1.786;2023-07-13T03:21:03;6.13;;;2.92;;
53245;SDS011;39569;51.090;-1.786;2023-07-13T03:23:31;9.65;;;4.28;;
53245;SDS011;39569;51.090;-1.786;2023-07-13T03:26:01;7.38;;;3.95;;
53245;SDS011;39569;51.090;-1.786;2023-07-13T03:28:30;7.95;;;3.83;;
53245;SDS011;39569;51.090;-1.786;2023-07-13T03:31:00;5.50;;;4.03;;
53245;SDS011;39569;51.090;-1.786;2023-07-13T03:33:27;3.42;;;3.22;;
53245;SDS011;39569;51.090;-1.786;2023-07-13T03:35:54;5.25;;;3.42;;
53245;SDS011;39569;51.090;-1.786;2023-07-13T03:38:21;4.45;;;3.17;;
53245;SDS011;39569;51.090;-1.786;2023-07-13T03:40:49;4.53;;;3.35;;
53245;SDS011;39569;51.090;-1.786;2023-07-13T03:43:16;5.13;;;3.20;;
53245;SDS011;39569;51.090;-1.786;2023-07-13T03:45:43;3.55;;;3.22;;
53245;SDS011;39569;51.090;-1.786;2023-07-13T03:48:10;4.32;;;3.40;;
53245;SDS011;39569;51.090;-1.786;2023-07-13T03:50:36;3.25;;;2.95;;
53245;SDS011;39569;51.090;-1.786;2023-07-13T03:53:03;4.03;;;3.63;;
53245;SDS011;39569;51.090;-1.786;2023-07-13T03:55:30;7.63;;;3.40;;
53245;SDS011;39569;51.090;-1.786;2023-07-13T03:57:59;8.00;;;3.97;;
53245;SDS011;39569;51.090;-1.786;2023-07-13T04:00:27;7.38;;;3.55;;
53245;SDS011;39569;51.090;-1.786;2023-07-13T04:02:54;5.68;;;3.67;;
53245;SDS011;39569;51.090;-1.786;2023-07-13T04:05:20;6.90;;;4.25;;
53245;SDS011;39569;51.090;-1.786;2023-07-13T04:07:47;4.63;;;3.72;;
53245;SDS011;39569;51.090;-1.786;2023-07-13T04:10:14;5.38;;;4.53;;
53245;SDS011;39569;51.090;-1.786;2023-07-13T04:12:40;5.45;;;4.20;;
53245;SDS011;39569;51.090;-1.786;2023-07-13T04:15:09;8.68;;;3.78;;
53245;SDS011;39569;51.090;-1.786;2023-07-13T04:17:36;8.95;;;3.85;;
53245;SDS011;39569;51.090;-1.786;2023-07-13T04:20:03;3.80;;;3.47;;
53245;SDS011;39569;51.090;-1.786;2023-07-13T04:22:30;7.65;;;4.32;;
53245;SDS011;39569;51.090;-1.786;2023-07-13T04:24:57;4.35;;;3.25;;
53245;SDS011;39569;51.090;-1.786;2023-07-13T04:27:24;9.95;;;3.85;;
53245;SDS011;39569;51.090;-1.786;2023-07-13T04:29:50;3.55;;;3.05;;
53245;SDS011;39569;51.090;-1.786;2023-07-13T04:32:18;4.25;;;3.85;;
53245;SDS011;39569;51.090;-1.786;2023-07-13T04:34:45;4.65;;;3.35;;
53245;SDS011;39569;51.090;-1.786;2023-07-13T04:37:12;3.50;;;3.28;;
53245;SDS011;39569;51.090;-1.786;2023-07-13T04:39:39;8.45;;;4.10;;
53245;SDS011;39569;51.090;-1.786;2023-07-13T04:42:06;5.15;;;4.10;;
53245;SDS011;39569;51.090;-1.786;2023-07-13T04:44:32;4.72;;;3.60;;
53245;SDS011;39569;51.090;-1.786;2023-07-13T04:46:59;4.13;;;3.78;;
53245;SDS011;39569;51.090;-1.786;2023-07-13T04:49:27;6.32;;;4.43;;
53245;SDS011;39569;51.090;-1.786;2023-07-13T04:51:54;5.50;;;3.53;;
53245;SDS011;39569;51.090;-1.786;2023-07-13T04:54:21;6.60;;;3.88;;
53245;SDS011;39569;51.090;-1.786;2023-07-13T04:56:47;5.20;;;4.50;;
53245;SDS011;39569;51.090;-1.786;2023-07-13T04:59:14;10.38;;;4.55;;
53245;SDS011;39569;51.090;-1.786;2023-07-13T05:01:41;5.53;;;4.38;;
53245;SDS011;39569;51.090;-1.786;2023-07-13T05:04:08;8.88;;;5.57;;
53245;SDS011;39569;51.090;-1.786;2023-07-13T05:06:36;6.57;;;3.90;;
53245;SDS011;39569;51.090;-1.786;2023-07-13T05:09:02;6.78;;;3.80;;
53245;SDS011;39569;51.090;-1.786;2023-07-13T05:11:29;5.93;;;3.97;;
53245;SDS011;39569;51.090;-1.786;2023-07-13T05:13:56;8.45;;;4.60;;
53245;SDS011;39569;51.090;-1.786;2023-07-13T05:16:23;4.53;;;3.40;;
53245;SDS011;39569;51.090;-1.786;2023-07-13T05:18:49;6.65;;;4.90;;
53245;SDS011;39569;51.090;-1.786;2023-07-13T05:21:16;4.75;;;3.17;;
53245;SDS011;39569;51.090;-1.786;2023-07-13T05:23:44;4.75;;;3.50;;
53245;SDS011;39569;51.090;-1.786;2023-07-13T05:26:11;3.97;;;2.97;;
53245;SDS011;39569;51.090;-1.786;2023-07-13T05:28:38;4.65;;;3.97;;
53245;SDS011;39569;51.090;-1.786;2023-07-13T05:31:06;5.82;;;3.38;;
53245;SDS011;39569;51.090;-1.786;2023-07-13T05:33:33;7.75;;;3.65;;
53245;SDS011;39569;51.090;-1.786;2023-07-13T05:36:00;3.95;;;3.53;;
53245;SDS011;39569;51.090;-1.786;2023-07-13T05:38:27;5.85;;;3.67;;
53245;SDS011;39569;51.090;-1.786;2023-07-13T05:40:56;8.93;;;4.75;;
53245;SDS011;39569;51.090;-1.786;2023-07-13T05:43:24;3.67;;;3.33;;
53245;SDS011;39569;51.090;-1.786;2023-07-13T05:45:51;4.43;;;3.40;;
53245;SDS011;39569;51.090;-1.786;2023-07-13T05:48:19;3.53;;;2.72;;
53245;SDS011;39569;51.090;-1.786;2023-07-13T05:50:46;3.85;;;3.33;;
53245;SDS011;39569;51.090;-1.786;2023-07-13T05:53:12;3.17;;;2.95;;
53245;SDS011;39569;51.090;-1.786;2023-07-13T05:55:40;4.30;;;2.92;;
53245;SDS011;39569;51.090;-1.786;2023-07-13T05:58:09;4.32;;;3.22;;
53245;SDS011;39569;51.090;-1.786;2023-07-13T06:00:36;5.07;;;3.42;;
53245;SDS011;39569;51.090;-1.786;2023-07-13T06:03:03;5.35;;;3.22;;
53245;SDS011;39569;51.090;-1.786;2023-07-13T06:05:31;4.22;;;3.35;;
53245;SDS011;39569;51.090;-1.786;2023-07-13T06:07:59;4.03;;;3.28;;
53245;SDS011;39569;51.090;-1.786;2023-07-13T06:10:26;5.05;;;3.40;;
53245;SDS011;39569;51.090;-1.786;2023-07-13T06:12:53;4.47;;;2.80;;
53245;SDS011;39569;51.090;-1.786;2023-07-13T06:15:21;4.97;;;3.38;;
53245;SDS011;39569;51.090;-1.786;2023-07-13T06:17:48;4.45;;;3.05;;
53245;SDS011;39569;51.090;-1.786;2023-07-13T06:20:14;7.63;;;2.80;;
53245;SDS011;39569;51.090;-1.786;2023-07-13T06:22:41;9.77;;;3.60;;
53245;SDS011;39569;51.090;-1.786;2023-07-13T06:25:08;5.90;;;3.28;;
53245;SDS011;39569;51.090;-1.786;2023-07-13T06:27:35;10.40;;;3.85;;
53245;SDS011;39569;51.090;-1.786;2023-07-13T06:30:02;4.32;;;2.83;;
53245;SDS011;39569;51.090;-1.786;2023-07-13T06:32:31;5.13;;;3.33;;
53245;SDS011;39569;51.090;-1.786;2023-07-13T06:34:57;12.70;;;3.58;;
53245;SDS011;39569;51.090;-1.786;2023-07-13T06:37:24;4.03;;;2.95;;
53245;SDS011;39569;51.090;-1.786;2023-07-13T06:39:51;5.00;;;3.35;;
53245;SDS011;39569;51.090;-1.786;2023-07-13T06:42:18;6.63;;;3.17;;
53245;SDS011;39569;51.090;-1.786;2023-07-13T06:44:44;3.63;;;2.72;;
53245;SDS011;39569;51.090;-1.786;2023-07-13T06:47:11;3.47;;;2.75;;
53245;SDS011;39569;51.090;-1.786;2023-07-13T06:49:39;4.32;;;3.40;;
53245;SDS011;39569;51.090;-1.786;2023-07-13T06:52:06;5.80;;;3.25;;
53245;SDS011;39569;51.090;-1.786;2023-07-13T06:54:33;5.07;;;2.63;;
53245;SDS011;39569;51.090;-1.786;2023-07-13T06:57:00;4.32;;;2.33;;
53245;SDS011;39569;51.090;-1.786;2023-07-13T06:59:27;5.63;;;3.60;;
53245;SDS011;39569;51.090;-1.786;2023-07-13T07:01:53;2.85;;;2.65;;
53245;SDS011;39569;51.090;-1.786;2023-07-13T07:04:20;7.57;;;3.17;;
53245;SDS011;39569;51.090;-1.786;2023-07-13T07:06:48;8.82;;;3.53;;
53245;SDS011;39569;51.090;-1.786;2023-07-13T07:09:15;13.38;;;3.15;;
53245;SDS011;39569;51.090;-1.786;2023-07-13T07:11:42;6.60;;;2.80;;
53245;SDS011;39569;51.090;-1.786;2023-07-13T07:14:09;4.60;;;2.50;;
53245;SDS011;39569;51.090;-1.786;2023-07-13T07:16:36;5.43;;;3.25;;
53245;SDS011;39569;51.090;-1.786;2023-07-13T07:19:02;9.68;;;3.03;;
53245;SDS011;39569;51.090;-1.786;2023-07-13T07:21:29;4.35;;;2.67;;
53245;SDS011;39569;51.090;-1.786;2023-07-13T07:23:57;3.15;;;2.88;;
53245;SDS011;39569;51.090;-1.786;2023-07-13T07:26:25;3.22;;;2.75;;
53245;SDS011;39569;51.090;-1.786;2023-07-13T07:28:51;6.45;;;3.20;;
53245;SDS011;39569;51.090;-1.786;2023-07-13T07:31:18;4.75;;;2.55;;
53245;SDS011;39569;51.090;-1.786;2023-07-13T07:33:45;5.55;;;2.97;;
53245;SDS011;39569;51.090;-1.786;2023-07-13T07:36:12;5.05;;;2.05;;
53245;SDS011;39569;51.090;-1.786;2023-07-13T07:38:38;7.95;;;2.83;;
53245;SDS011;39569;51.090;-1.786;2023-07-13T07:41:06;3.63;;;2.55;;
53245;SDS011;39569;51.090;-1.786;2023-07-13T07:43:33;7.65;;;3.08;;
53245;SDS011;39569;51.090;-1.786;2023-07-13T07:46:01;3.67;;;3.17;;
53245;SDS011;39569;51.090;-1.786;2023-07-13T07:48:28;6.07;;;3.05;;
53245;SDS011;39569;51.090;-1.786;2023-07-13T07:50:55;9.38;;;3.83;;
53245;SDS011;39569;51.090;-1.786;2023-07-13T07:53:22;10.48;;;2.78;;
53245;SDS011;39569;51.090;-1.786;2023-07-13T07:55:48;10.52;;;2.92;;
53245;SDS011;39569;51.090;-1.786;2023-07-13T07:58:17;8.05;;;3.25;;
53245;SDS011;39569;51.090;-1.786;2023-07-13T08:00:44;4.10;;;2.75;;
53245;SDS011;39569;51.090;-1.786;2023-07-13T08:03:11;10.02;;;3.42;;
53245;SDS011;39569;51.090;-1.786;2023-07-13T08:05:37;2.95;;;2.63;;
53245;SDS011;39569;51.090;-1.786;2023-07-13T08:08:04;3.47;;;2.70;;
53245;SDS011;39569;51.090;-1.786;2023-07-13T08:10:31;3.25;;;2.00;;
53245;SDS011;39569;51.090;-1.786;2023-07-13T08:12:58;3.53;;;2.40;;
53245;SDS011;39569;51.090;-1.786;2023-07-13T08:15:26;4.55;;;2.10;;
53245;SDS011;39569;51.090;-1.786;2023-07-13T08:17:53;3.17;;;2.88;;
53245;SDS011;39569;51.090;-1.786;2023-07-13T08:20:20;3.47;;;2.33;;
53245;SDS011;39569;51.090;-1.786;2023-07-13T08:22:47;4.35;;;2.05;;
53245;SDS011;39569;51.090;-1.786;2023-07-13T08:25:13;3.78;;;2.35;;
53245;SDS011;39569;51.090;-1.786;2023-07-13T08:27:41;1.65;;;1.55;;
53245;SDS011;39569;51.090;-1.786;2023-07-13T08:30:08;3.85;;;2.60;;
53245;SDS011;39569;51.090;-1.786;2023-07-13T08:32:36;4.97;;;2.47;;
53245;SDS011;39569;51.090;-1.786;2023-07-13T08:35:04;4.75;;;2.13;;
53245;SDS011;39569;51.090;-1.786;2023-07-13T08:37:31;3.58;;;2.85;;
53245;SDS011;39569;51.090;-1.786;2023-07-13T08:39:58;3.40;;;2.50;;
53245;SDS011;39569;51.090;-1.786;2023-07-13T08:42:32;3.13;;;2.25;;
53245;SDS011;39569;51.090;-1.786;2023-07-13T08:45:13;6.03;;;2.50;;
53245;SDS011;39569;51.090;-1.786;2023-07-13T08:47:49;2.20;;;1.60;;
53245;SDS011;39569;51.090;-1.786;2023-07-13T08:50:22;3.13;;;2.03;;
53245;SDS011;39569;51.090;-1.786;2023-07-13T08:52:54;6.78;;;2.28;;
53245;SDS011;39569;51.090;-1.786;2023-07-13T08:55:22;3.33;;;2.17;;
53245;SDS011;39569;51.090;-1.786;2023-07-13T08:57:54;2.10;;;1.77;;
53245;SDS011;39569;51.090;-1.786;2023-07-13T09:00:41;3.47;;;2.00;;
53245;SDS011;39569;51.090;-1.786;2023-07-13T09:03:18;2.80;;;2.35;;
53245;SDS011;39569;51.090;-1.786;2023-07-13T09:05:51;3.90;;;2.13;;
53245;SDS011;39569;51.090;-1.786;2023-07-13T09:08:29;1.70;;;1.60;;
53245;SDS011;39569;51.090;-1.786;2023-07-13T09:11:03;1.42;;;1.33;;
53245;SDS011;39569;51.090;-1.786;2023-07-13T09:13:45;2.60;;;1.88;;
53245;SDS011;39569;51.090;-1.786;2023-07-13T09:16:17;5.53;;;2.03;;
53245;SDS011;39569;51.090;-1.786;2023-07-13T09:18:47;5.60;;;2.63;;
53245;SDS011;39569;51.090;-1.786;2023-07-13T09:21:17;2.13;;;1.85;;
53245;SDS011;39569;51.090;-1.786;2023-07-13T09:23:48;3.03;;;2.78;;
53245;SDS011;39569;51.090;-1.786;2023-07-13T09:26:19;1.88;;;1.77;;
53245;SDS011;39569;51.090;-1.786;2023-07-13T09:28:48;4.13;;;2.13;;
53245;SDS011;39569;51.090;-1.786;2023-07-13T09:31:21;2.20;;;1.90;;
53245;SDS011;39569;51.090;-1.786;2023-07-13T09:33:54;15.18;;;2.28;;
53245;SDS011;39569;51.090;-1.786;2023-07-13T09:36:22;1.65;;;1.55;;
53245;SDS011;39569;51.090;-1.786;2023-07-13T09:38:55;2.90;;;1.88;;
53245;SDS011;39569;51.090;-1.786;2023-07-13T09:41:31;2.33;;;1.70;;
53245;SDS011;39569;51.090;-1.786;2023-07-13T09:44:07;2.78;;;1.40;;
53245;SDS011;39569;51.090;-1.786;2023-07-13T09:46:36;2.33;;;1.58;;
53245;SDS011;39569;51.090;-1.786;2023-07-13T09:49:04;1.77;;;1.67;;
53245;SDS011;39569;51.090;-1.786;2023-07-13T09:51:31;3.00;;;1.75;;
53245;SDS011;39569;51.090;-1.786;2023-07-13T09:53:58;1.58;;;1.48;;
53245;SDS011;39569;51.090;-1.786;2023-07-13T09:56:26;2.85;;;1.70;;
53245;SDS011;39569;51.090;-1.786;2023-07-13T09:58:55;2.15;;;1.40;;
53245;SDS011;39569;51.090;-1.786;2023-07-13T10:01:33;1.77;;;1.63;;
53245;SDS011;39569;51.090;-1.786;2023-07-13T10:04:01;2.05;;;1.55;;
53245;SDS011;39569;51.090;-1.786;2023-07-13T10:06:29;1.45;;;1.17;;
53245;SDS011;39569;51.090;-1.786;2023-07-13T10:08:56;5.35;;;2.00;;
53245;SDS011;39569;51.090;-1.786;2023-07-13T10:11:26;1.77;;;1.45;;
53245;SDS011;39569;51.090;-1.786;2023-07-13T10:13:55;3.65;;;0.93;;
53245;SDS011;39569;51.090;-1.786;2023-07-13T10:16:25;2.20;;;1.13;;
53245;SDS011;39569;51.090;-1.786;2023-07-13T10:18:58;2.28;;;1.50;;
53245;SDS011;39569;51.090;-1.786;2023-07-13T10:21:30;1.65;;;1.30;;
53245;SDS011;39569;51.090;-1.786;2023-07-13T10:24:03;4.53;;;1.15;;
53245;SDS011;39569;51.090;-1.786;2023-07-13T10:29:06;2.95;;;1.92;;
53245;SDS011;39569;51.090;-1.786;2023-07-13T10:31:38;1.92;;;1.25;;
53245;SDS011;39569;51.090;-1.786;2023-07-13T10:34:08;0.80;;;0.80;;
53245;SDS011;39569;51.090;-1.786;2023-07-13T10:36:39;1.00;;;1.00;;
53245;SDS011;39569;51.090;-1.786;2023-07-13T10:39:09;3.92;;;1.65;;
53245;SDS011;39569;51.090;-1.786;2023-07-13T10:41:41;2.35;;;1.60;;
53245;SDS011;39569;51.090;-1.786;2023-07-13T10:44:13;3.40;;;1.63;;
53245;SDS011;39569;51.090;-1.786;2023-07-13T10:46:47;1.77;;;1.65;;
53245;SDS011;39569;51.090;-1.786;2023-07-13T10:49:14;2.25;;;1.33;;
53245;SDS011;39569;51.090;-1.786;2023-07-13T10:51:44;2.97;;;1.20;;
53245;SDS011;39569;51.090;-1.786;2023-07-13T10:54:14;1.30;;;1.20;;
53245;SDS011;39569;51.090;-1.786;2023-07-13T10:56:43;2.00;;;1.58;;
53245;SDS011;39569;51.090;-1.786;2023-07-13T10:59:12;1.85;;;1.42;;
53245;SDS011;39569;51.090;-1.786;2023-07-13T11:01:48;9.00;;;1.67;;
53245;SDS011;39569;51.090;-1.786;2023-07-13T11:04:21;3.10;;;2.05;;
53245;SDS011;39569;51.090;-1.786;2023-07-13T11:06:52;1.77;;;1.67;;
53245;SDS011;39569;51.090;-1.786;2023-07-13T11:09:31;2.38;;;1.80;;
53245;SDS011;39569;51.090;-1.786;2023-07-13T11:12:02;2.10;;;1.90;;
53245;SDS011;39569;51.090;-1.786;2023-07-13T11:14:34;1.35;;;1.25;;
53245;SDS011;39569;51.090;-1.786;2023-07-13T11:20:18;2.85;;;2.08;;
53245;SDS011;39569;51.090;-1.786;2023-07-13T11:22:50;2.17;;;1.50;;
53245;SDS011;39569;51.090;-1.786;2023-07-13T11:25:25;2.20;;;1.73;;
53245;SDS011;39569;51.090;-1.786;2023-07-13T11:30:32;1.63;;;1.52;;
53245;SDS011;39569;51.090;-1.786;2023-07-13T11:33:03;2.72;;;1.52;;
53245;SDS011;39569;51.090;-1.786;2023-07-13T11:35:46;7.50;;;2.47;;
53245;SDS011;39569;51.090;-1.786;2023-07-13T11:38:19;2.13;;;1.90;;
53245;SDS011;39569;51.090;-1.786;2023-07-13T11:40:48;6.85;;;2.45;;
53245;SDS011;39569;51.090;-1.786;2023-07-13T11:43:19;3.95;;;2.78;;
53245;SDS011;39569;51.090;-1.786;2023-07-13T11:45:48;2.83;;;2.17;;
53245;SDS011;39569;51.090;-1.786;2023-07-13T11:48:19;5.30;;;3.10;;
53245;SDS011;39569;51.090;-1.786;2023-07-13T11:50:54;5.45;;;2.97;;
53245;SDS011;39569;51.090;-1.786;2023-07-13T11:53:25;5.38;;;3.20;;
53245;SDS011;39569;51.090;-1.786;2023-07-13T11:55:54;4.32;;;2.65;;
53245;SDS011;39569;51.090;-1.786;2023-07-13T11:58:23;2.38;;;2.20;;
53245;SDS011;39569;51.090;-1.786;2023-07-13T12:00:53;2.45;;;2.25;;
53245;SDS011;39569;51.090;-1.786;2023-07-13T12:03:24;5.72;;;2.90;;
53245;SDS011;39569;51.090;-1.786;2023-07-13T12:05:55;15.73;;;2.55;;
53245;SDS011;39569;51.090;-1.786;2023-07-13T12:08:24;6.20;;;3.42;;
53245;SDS011;39569;51.090;-1.786;2023-07-13T12:11:03;4.25;;;2.65;;
53245;SDS011;39569;51.090;-1.786;2023-07-13T12:13:35;3.08;;;2.40;;
53245;SDS011;39569;51.090;-1.786;2023-07-13T12:16:10;2.70;;;2.47;;
53245;SDS011;39569;51.090;-1.786;2023-07-13T12:18:41;4.95;;;2.80;;
53245;SDS011;39569;51.090;-1.786;2023-07-13T12:21:12;4.90;;;2.97;;
53245;SDS011;39569;51.090;-1.786;2023-07-13T12:23:42;5.88;;;3.50;;
53245;SDS011;39569;51.090;-1.786;2023-07-13T12:26:11;4.82;;;3.50;;
53245;SDS011;39569;51.090;-1.786;2023-07-13T12:28:44;7.70;;;3.92;;
53245;SDS011;39569;51.090;-1.786;2023-07-13T12:34:00;2.78;;;2.08;;
53245;SDS011;39569;51.090;-1.786;2023-07-13T12:36:32;5.85;;;2.83;;
53245;SDS011;39569;51.090;-1.786;2023-07-13T12:39:04;6.50;;;3.47;;
53245;SDS011;39569;51.090;-1.786;2023-07-13T12:41:39;6.60;;;2.88;;
53245;SDS011;39569;51.090;-1.786;2023-07-13T12:44:09;6.07;;;2.40;;
53245;SDS011;39569;51.090;-1.786;2023-07-13T12:46:38;8.65;;;2.45;;
53245;SDS011;39569;51.090;-1.786;2023-07-13T12:49:05;3.85;;;3.22;;
53245;SDS011;39569;51.090;-1.786;2023-07-13T12:51:33;7.63;;;2.70;;
53245;SDS011;39569;51.090;-1.786;2023-07-13T12:54:07;7.47;;;4.00;;
53245;SDS011;39569;51.090;-1.786;2023-07-13T12:56:41;8.77;;;3.40;;
53245;SDS011;39569;51.090;-1.786;2023-07-13T12:59:11;4.07;;;3.63;;
53245;SDS011;39569;51.090;-1.786;2023-07-13T13:01:44;7.83;;;3.37;;
53245;SDS011;39569;51.090;-1.786;2023-07-13T13:04:12;7.68;;;3.90;;
53245;SDS011;39569;51.090;-1.786;2023-07-13T13:06:39;6.40;;;3.88;;
53245;SDS011;39569;51.090;-1.786;2023-07-13T13:09:11;8.48;;;3.63;;
53245;SDS011;39569;51.090;-1.786;2023-07-13T13:11:39;5.43;;;4.30;;
53245;SDS011;39569;51.090;-1.786;2023-07-13T13:14:07;4.55;;;3.60;;
53245;SDS011;39569;51.090;-1.786;2023-07-13T13:16:35;8.73;;;3.63;;
53245;SDS011;39569;51.090;-1.786;2023-07-13T13:19:10;3.83;;;3.35;;
53245;SDS011;39569;51.090;-1.786;2023-07-13T13:21:40;8.00;;;4.43;;
53245;SDS011;39569;51.090;-1.786;2023-07-13T13:24:12;10.52;;;4.93;;
53245;SDS011;39569;51.090;-1.786;2023-07-13T13:26:40;5.78;;;3.88;;
53245;SDS011;39569;51.090;-1.786;2023-07-13T13:29:12;8.18;;;3.17;;
53245;SDS011;39569;51.090;-1.786;2023-07-13T13:31:40;4.45;;;4.05;;
53245;SDS011;39569;51.090;-1.786;2023-07-13T13:34:08;4.25;;;3.88;;
53245;SDS011;39569;51.090;-1.786;2023-07-13T13:36:36;2.92;;;2.63;;
53245;SDS011;39569;51.090;-1.786;2023-07-13T13:39:08;6.10;;;2.85;;
53245;SDS011;39569;51.090;-1.786;2023-07-13T13:41:46;2.83;;;2.47;;
53245;SDS011;39569;51.090;-1.786;2023-07-13T13:44:14;3.50;;;2.38;;
53245;SDS011;39569;51.090;-1.786;2023-07-13T13:46:42;4.65;;;2.35;;
53245;SDS011;39569;51.090;-1.786;2023-07-13T13:49:12;2.05;;;1.90;;
53245;SDS011;39569;51.090;-1.786;2023-07-13T13:51:41;3.80;;;2.40;;
53245;SDS011;39569;51.090;-1.786;2023-07-13T13:54:10;1.98;;;1.63;;
53245;SDS011;39569;51.090;-1.786;2023-07-13T13:56:38;1.92;;;1.50;;
53245;SDS011;39569;51.090;-1.786;2023-07-13T13:59:06;5.22;;;1.98;;
53245;SDS011;39569;51.090;-1.786;2023-07-13T14:01:34;4.15;;;2.20;;
53245;SDS011;39569;51.090;-1.786;2023-07-13T14:04:01;1.58;;;1.48;;
53245;SDS011;39569;51.090;-1.786;2023-07-13T14:06:28;1.50;;;1.40;;
53245;SDS011;39569;51.090;-1.786;2023-07-13T14:08:55;1.70;;;1.60;;
53245;SDS011;39569;51.090;-1.786;2023-07-13T14:11:22;1.58;;;1.48;;
53245;SDS011;39569;51.090;-1.786;2023-07-13T14:13:50;1.83;;;1.73;;
53245;SDS011;39569;51.090;-1.786;2023-07-13T14:16:21;2.10;;;1.67;;
53245;SDS011;39569;51.090;-1.786;2023-07-13T14:18:48;2.50;;;1.92;;
53245;SDS011;39569;51.090;-1.786;2023-07-13T14:21:17;1.60;;;1.20;;
53245;SDS011;39569;51.090;-1.786;2023-07-13T14:23:46;2.17;;;1.63;;
53245;SDS011;39569;51.090;-1.786;2023-07-13T14:26:14;3.83;;;1.50;;
53245;SDS011;39569;51.090;-1.786;2023-07-13T14:28:44;1.75;;;1.52;;
53245;SDS011;39569;51.090;-1.786;2023-07-13T14:31:14;2.60;;;1.63;;
53245;SDS011;39569;51.090;-1.786;2023-07-13T14:33:42;3.65;;;1.40;;
53245;SDS011;39569;51.090;-1.786;2023-07-13T14:36:20;1.50;;;1.40;;
53245;SDS011;39569;51.090;-1.786;2023-07-13T14:38:52;4.65;;;2.13;;
53245;SDS011;39569;51.090;-1.786;2023-07-13T14:41:19;2.55;;;1.70;;
53245;SDS011;39569;51.090;-1.786;2023-07-13T14:43:46;5.13;;;1.83;;
53245;SDS011;39569;51.090;-1.786;2023-07-13T14:46:18;1.50;;;1.38;;
53245;SDS011;39569;51.090;-1.786;2023-07-13T14:48:53;2.60;;;1.52;;
53245;SDS011;39569;51.090;-1.786;2023-07-13T14:51:25;3.03;;;1.42;;
53245;SDS011;39569;51.090;-1.786;2023-07-13T14:53:52;1.80;;;1.13;;